Time;durP1;ratioP1;P1;durP2;ratioP2;P2;SDS_P1;SDS_P2;PMS_P1;PMS_P2;Temp;Humidity;BMP_temperature;BMP_pressure;BME280_temperature;BME280_humidity;BME280_pressure;Samples;Min_cycle;Max_cycle;Signal;HPM_P1;HPM_P2
2020/12/12 00:01:36;;;;;;;18.75;13.85;;;11.50;99.90;;;;;;5020138;28;20230;-89
2020/12/12 00:04:02;;;;;;;20.00;12.55;;;11.40;99.90;;;;;;5003602;28;20199;-88
2020/12/12 00:06:28;;;;;;;15.93;12.82;;;11.40;99.90;;;;;;5003775;28;20176;-88
2020/12/12 00:08:53;;;;;;;18.17;12.65;;;11.40;99.90;;;;;;5020122;28;20579;-88
2020/12/12 00:11:22;;;;;;;27.60;14.77;;;11.50;99.90;;;;;;5024839;28;20200;-87
2020/12/12 00:13:48;;;;;;;19.08;13.25;;;11.50;99.90;;;;;;5040913;28;20243;-87
2020/12/12 00:16:17;;;;;;;22.27;13.82;;;11.50;99.90;;;;;;5018269;28;20522;-88
2020/12/12 00:18:44;;;;;;;20.48;13.88;;;11.40;99.90;;;;;;5020048;28;20172;-89
2020/12/12 00:21:14;;;;;;;23.33;13.73;;;11.50;99.90;;;;;;5004278;28;20179;-89
2020/12/12 00:23:40;;;;;;;21.75;13.70;;;11.50;99.90;;;;;;5021128;28;20223;-87
2020/12/12 00:26:06;;;;;;;28.58;14.95;;;11.50;99.90;;;;;;5005344;28;20172;-88
2020/12/12 00:28:35;;;;;;;20.45;14.68;;;11.50;99.90;;;;;;5021567;28;20184;-89
2020/12/12 00:31:01;;;;;;;24.15;14.55;;;11.40;99.90;;;;;;5039841;28;20204;-89
2020/12/12 00:33:27;;;;;;;25.35;14.52;;;11.40;99.90;;;;;;5010100;28;20210;-88
2020/12/12 00:35:52;;;;;;;28.30;13.90;;;11.40;99.90;;;;;;5003682;28;20179;-88
2020/12/12 00:38:18;;;;;;;20.67;14.20;;;11.40;99.90;;;;;;5004638;28;20258;-88
2020/12/12 00:40:44;;;;;;;22.77;14.27;;;11.30;99.90;;;;;;5038126;28;20218;-89
2020/12/12 00:43:10;;;;;;;17.63;13.20;;;11.30;99.90;;;;;;5003465;28;20183;-89
2020/12/12 00:45:35;;;;;;;23.05;13.32;;;11.40;99.90;;;;;;5003721;28;20172;-89
2020/12/12 00:48:01;;;;;;;27.25;14.02;;;11.40;99.90;;;;;;5004561;28;20201;-89
2020/12/12 00:50:27;;;;;;;15.23;13.05;;;11.40;99.90;;;;;;5004258;28;20543;-87
2020/12/12 00:52:52;;;;;;;24.80;14.23;;;11.40;99.90;;;;;;5002864;28;20257;-87
2020/12/12 00:55:18;;;;;;;21.63;13.70;;;11.30;99.90;;;;;;5002696;28;20176;-87
2020/12/12 00:57:45;;;;;;;25.25;14.35;;;11.30;99.90;;;;;;5002519;28;20176;-89
2020/12/12 01:00:11;;;;;;;23.83;13.27;;;11.30;99.90;;;;;;5002007;28;20184;-89
2020/12/12 01:02:37;;;;;;;30.33;14.05;;;11.20;99.90;;;;;;5018230;28;20510;-89
2020/12/12 01:05:03;;;;;;;25.42;14.35;;;11.30;99.90;;;;;;4986216;28;20172;-89
2020/12/12 01:07:29;;;;;;;27.70;15.65;;;11.20;99.90;;;;;;4985653;28;20178;-88
2020/12/12 01:09:55;;;;;;;33.88;15.77;;;11.10;99.90;;;;;;5001854;28;20625;-89
2020/12/12 01:12:21;;;;;;;28.40;13.98;;;11.10;99.90;;;;;;5001723;28;20525;-89
2020/12/12 01:14:47;;;;;;;36.60;15.23;;;11.10;99.90;;;;;;5018342;28;20168;-89
2020/12/12 01:17:13;;;;;;;38.72;15.45;;;11.00;99.90;;;;;;5001488;28;20744;-89
2020/12/12 01:19:38;;;;;;;41.55;16.45;;;11.00;99.90;;;;;;5017929;28;20192;-88
2020/12/12 01:22:04;;;;;;;42.00;15.98;;;11.00;99.90;;;;;;4985627;28;20267;-89
2020/12/12 01:24:30;;;;;;;45.00;17.20;;;11.00;99.90;;;;;;5018462;28;20180;-88
2020/12/12 01:26:55;;;;;;;39.88;17.20;;;10.90;99.90;;;;;;5017908;28;20528;-88
2020/12/12 01:29:21;;;;;;;41.55;17.08;;;10.90;99.90;;;;;;5034136;28;20503;-89
2020/12/12 01:31:48;;;;;;;39.00;16.98;;;10.90;99.90;;;;;;5017639;28;20287;-89
2020/12/12 01:34:14;;;;;;;43.33;17.55;;;10.90;99.90;;;;;;5017930;28;20183;-88
2020/12/12 01:36:40;;;;;;;46.60;17.20;;;10.90;99.90;;;;;;5017624;28;20229;-89
2020/12/12 01:39:08;;;;;;;45.88;18.25;;;10.80;99.90;;;;;;5033513;28;20574;-89
2020/12/12 01:41:34;;;;;;;51.97;17.85;;;10.80;99.90;;;;;;5033252;28;20171;-89
2020/12/12 01:44:00;;;;;;;41.83;17.02;;;10.80;99.90;;;;;;5017605;28;20267;-88
2020/12/12 01:46:27;;;;;;;40.90;16.88;;;10.80;99.90;;;;;;5001114;28;20172;-89
2020/12/12 01:48:55;;;;;;;43.63;17.85;;;10.70;99.90;;;;;;5017805;28;20172;-89
2020/12/12 01:51:22;;;;;;;45.33;18.77;;;10.60;99.90;;;;;;5017318;28;20643;-89
2020/12/12 01:53:50;;;;;;;56.75;18.52;;;10.60;99.90;;;;;;5034088;28;20172;-89
2020/12/12 01:56:17;;;;;;;52.47;18.25;;;10.60;99.90;;;;;;5017476;28;20207;-89
2020/12/12 01:58:44;;;;;;;48.90;18.38;;;10.60;99.90;;;;;;5017360;28;20184;-89
2020/12/12 02:01:12;;;;;;;51.28;18.92;;;10.50;99.90;;;;;;5017279;28;20199;-89
2020/12/12 02:03:42;;;;;;;47.90;18.80;;;10.50;99.90;;;;;;5017604;28;20640;-89
2020/12/12 02:06:12;;;;;;;52.25;20.35;;;10.40;99.90;;;;;;5017605;28;20168;-89
2020/12/12 02:08:38;;;;;;;54.47;20.40;;;10.40;99.90;;;;;;5017469;28;20194;-89
2020/12/12 02:11:06;;;;;;;51.25;19.40;;;10.50;99.90;;;;;;5017309;28;20664;-89
2020/12/12 02:13:32;;;;;;;50.42;21.42;;;10.50;99.90;;;;;;5017241;28;20176;-89
2020/12/12 02:15:57;;;;;;;43.38;19.48;;;10.40;99.90;;;;;;5002046;28;20183;-89
2020/12/12 02:18:24;;;;;;;48.58;21.10;;;10.50;99.90;;;;;;5003060;28;20234;-89
2020/12/12 02:20:50;;;;;;;44.92;20.60;;;10.50;99.90;;;;;;5036910;28;20195;-89
2020/12/12 02:23:17;;;;;;;53.80;21.23;;;10.60;99.90;;;;;;5019932;28;20176;-89
2020/12/12 02:25:43;;;;;;;59.78;22.13;;;10.60;99.90;;;;;;5019283;28;20176;-89
2020/12/12 02:28:12;;;;;;;58.97;20.67;;;10.70;99.90;;;;;;5016110;28;20171;-89
2020/12/12 02:30:38;;;;;;;50.05;19.90;;;10.70;99.90;;;;;;5041237;28;20211;-87
2020/12/12 02:33:03;;;;;;;55.20;19.75;;;10.80;99.90;;;;;;5024783;28;20160;-87
2020/12/12 02:35:29;;;;;;;63.15;19.77;;;10.80;99.90;;;;;;5024800;28;20148;-87
2020/12/12 02:37:55;;;;;;;52.67;19.83;;;10.70;99.90;;;;;;5041074;28;20192;-88
2020/12/12 02:40:20;;;;;;;66.85;20.13;;;10.70;99.90;;;;;;5023918;28;20188;-89
2020/12/12 02:42:46;;;;;;;48.53;19.25;;;10.70;99.90;;;;;;5016806;28;20193;-88
2020/12/12 02:45:12;;;;;;;61.35;19.02;;;10.70;99.90;;;;;;5019347;28;20180;-88
2020/12/12 02:47:39;;;;;;;48.35;18.95;;;10.70;99.90;;;;;;5025885;28;20172;-88
2020/12/12 02:50:09;;;;;;;65.30;18.67;;;10.70;99.90;;;;;;5014996;28;20173;-89
2020/12/12 02:52:37;;;;;;;56.30;17.33;;;10.70;99.90;;;;;;5016300;28;20653;-89
2020/12/12 02:55:04;;;;;;;54.90;18.02;;;10.70;99.90;;;;;;5040362;28;20168;-89
2020/12/12 02:57:29;;;;;;;42.25;17.52;;;10.80;99.90;;;;;;5003938;28;20176;-89
2020/12/12 02:59:55;;;;;;;54.00;18.55;;;10.90;99.90;;;;;;5022918;28;20192;-89
2020/12/12 03:02:21;;;;;;;49.97;18.10;;;10.90;99.90;;;;;;5002057;28;20180;-89
2020/12/12 03:04:46;;;;;;;54.13;18.27;;;10.90;99.90;;;;;;5001998;28;20181;-88
2020/12/12 03:07:12;;;;;;;56.90;18.10;;;11.00;99.90;;;;;;5001707;28;20641;-89
2020/12/12 03:09:38;;;;;;;45.60;17.13;;;11.10;99.90;;;;;;5018007;28;20173;-89
2020/12/12 03:12:04;;;;;;;56.13;17.88;;;11.10;99.90;;;;;;5013970;28;20278;-89
2020/12/12 03:14:29;;;;;;;43.92;17.83;;;11.10;99.90;;;;;;5020664;28;20188;-89
2020/12/12 03:16:56;;;;;;;58.25;17.83;;;11.10;99.90;;;;;;5020560;28;20199;-89
2020/12/12 03:19:22;;;;;;;55.97;18.27;;;11.10;99.90;;;;;;5020505;28;20672;-89
2020/12/12 03:21:48;;;;;;;53.08;18.70;;;11.00;99.90;;;;;;5037949;28;20176;-89
2020/12/12 03:24:13;;;;;;;57.50;19.92;;;11.00;99.90;;;;;;5020247;28;20514;-88
2020/12/12 03:26:39;;;;;;;63.35;20.95;;;10.80;99.90;;;;;;5003598;28;20172;-89
2020/12/12 03:29:05;;;;;;;54.90;18.25;;;10.70;99.90;;;;;;5036944;28;20195;-89
2020/12/12 03:31:30;;;;;;;53.35;19.08;;;10.70;99.90;;;;;;5020138;28;20203;-89
2020/12/12 03:33:56;;;;;;;55.25;20.42;;;10.80;99.90;;;;;;5036980;28;20526;-89
2020/12/12 03:36:21;;;;;;;47.08;18.63;;;10.80;99.90;;;;;;5036657;28;20199;-89
2020/12/12 03:38:47;;;;;;;46.40;19.23;;;10.90;99.90;;;;;;5020033;28;20172;-89
2020/12/12 03:41:13;;;;;;;46.38;17.50;;;11.00;99.90;;;;;;5019883;28;20644;-89
2020/12/12 03:43:39;;;;;;;61.88;21.42;;;11.00;99.90;;;;;;5020010;28;20164;-89
2020/12/12 03:46:05;;;;;;;59.47;20.05;;;11.00;99.90;;;;;;5020036;28;20164;-89
2020/12/12 03:48:30;;;;;;;67.72;20.05;;;11.20;99.90;;;;;;5019935;28;20222;-89
2020/12/12 03:50:56;;;;;;;56.00;20.48;;;11.30;99.90;;;;;;5019915;28;20295;-89
2020/12/12 03:53:22;;;;;;;67.03;20.55;;;11.40;99.90;;;;;;4987268;28;20588;-89
2020/12/12 03:55:47;;;;;;;67.43;20.55;;;11.40;99.90;;;;;;5003681;28;20568;-89
2020/12/12 03:58:13;;;;;;;70.32;21.25;;;11.40;99.90;;;;;;5003221;28;20173;-89
2020/12/12 04:00:39;;;;;;;48.05;20.17;;;11.40;99.90;;;;;;4986856;28;20210;-89
2020/12/12 04:03:04;;;;;;;48.75;20.98;;;11.40;99.90;;;;;;5020022;28;20179;-89
2020/12/12 04:05:30;;;;;;;54.22;20.08;;;11.50;99.90;;;;;;5018524;28;20188;-89
2020/12/12 04:07:55;;;;;;;53.10;20.08;;;11.50;99.90;;;;;;5003401;28;20267;-89
2020/12/12 04:10:21;;;;;;;59.00;19.45;;;11.50;99.90;;;;;;5002993;28;20227;-89
2020/12/12 04:12:47;;;;;;;53.13;18.10;;;11.50;99.90;;;;;;5000908;28;20189;-89
2020/12/12 04:15:12;;;;;;;43.03;19.13;;;11.50;99.90;;;;;;4999755;28;20173;-89
2020/12/12 04:17:38;;;;;;;55.10;18.80;;;11.50;99.90;;;;;;4999514;28;20165;-89
2020/12/12 04:20:04;;;;;;;49.90;19.10;;;11.40;99.90;;;;;;4999126;28;20192;-89
2020/12/12 04:22:29;;;;;;;55.05;18.25;;;11.50;99.90;;;;;;5017279;28;20187;-89
2020/12/12 04:24:55;;;;;;;47.95;18.83;;;11.50;99.90;;;;;;5017146;28;20176;-89
2020/12/12 04:27:21;;;;;;;47.55;17.70;;;11.50;99.90;;;;;;4999531;28;20173;-90
2020/12/12 04:29:46;;;;;;;50.97;18.15;;;11.40;99.90;;;;;;4999354;28;20188;-88
2020/12/12 04:32:12;;;;;;;49.90;17.17;;;11.40;99.90;;;;;;4999245;28;20204;-89
2020/12/12 04:34:38;;;;;;;48.55;17.80;;;11.30;99.90;;;;;;4999232;28;20176;-89
2020/12/12 04:37:04;;;;;;;47.50;16.92;;;11.20;99.90;;;;;;4999218;28;20181;-89
2020/12/12 04:39:30;;;;;;;48.63;16.75;;;11.00;99.90;;;;;;4999199;28;20169;-89
2020/12/12 04:41:56;;;;;;;48.85;16.73;;;11.00;99.90;;;;;;5029409;28;20188;-89
2020/12/12 04:44:23;;;;;;;43.15;17.30;;;10.90;99.90;;;;;;5019079;28;20161;-89
2020/12/12 04:46:50;;;;;;;43.40;15.82;;;10.80;99.90;;;;;;5002354;28;20177;-89
2020/12/12 04:49:16;;;;;;;43.38;17.13;;;10.70;99.90;;;;;;5002744;28;20617;-89
2020/12/12 04:51:46;;;;;;;41.65;15.43;;;10.80;99.90;;;;;;5002235;28;20206;-89
2020/12/12 04:54:17;;;;;;;44.28;16.35;;;10.80;99.90;;;;;;5018584;28;20181;-89
2020/12/12 04:56:45;;;;;;;43.08;16.00;;;10.70;99.90;;;;;;5018586;28;20164;-89
2020/12/12 04:59:12;;;;;;;48.45;16.75;;;10.70;99.90;;;;;;5002192;28;20184;-89
2020/12/12 05:01:38;;;;;;;41.78;16.88;;;10.80;99.90;;;;;;5020000;28;20190;-89
2020/12/12 05:04:07;;;;;;;45.20;16.50;;;10.90;99.90;;;;;;5026227;28;20188;-89
2020/12/12 05:06:33;;;;;;;44.55;15.80;;;11.00;99.90;;;;;;5022864;28;20208;-89
2020/12/12 05:08:59;;;;;;;39.65;15.30;;;11.10;99.90;;;;;;5031323;28;20168;-89
2020/12/12 05:11:25;;;;;;;45.92;16.13;;;11.10;99.90;;;;;;5002462;28;20259;-88
2020/12/12 05:13:52;;;;;;;39.88;15.98;;;11.00;99.90;;;;;;5002240;28;20184;-89
2020/12/12 05:16:19;;;;;;;58.30;15.40;;;11.10;99.90;;;;;;5035853;28;20256;-89
2020/12/12 05:18:44;;;;;;;38.58;14.88;;;11.10;99.90;;;;;;5018099;28;20168;-89
2020/12/12 05:21:11;;;;;;;43.25;14.98;;;11.20;99.90;;;;;;5034813;28;20190;-89
2020/12/12 05:23:38;;;;;;;43.97;14.10;;;11.20;99.90;;;;;;5022437;28;20247;-89
2020/12/12 05:26:04;;;;;;;31.88;14.30;;;11.20;99.90;;;;;;5009719;28;20180;-90
2020/12/12 05:28:30;;;;;;;44.25;15.05;;;11.20;99.90;;;;;;5022771;28;20211;-88
2020/12/12 05:30:55;;;;;;;42.50;14.57;;;11.20;99.90;;;;;;5001647;28;20239;-87
2020/12/12 05:33:23;;;;;;;35.60;15.25;;;11.30;99.90;;;;;;5001630;28;20192;-88
2020/12/12 05:35:50;;;;;;;47.25;15.18;;;11.30;99.90;;;;;;5017893;28;20170;-88
2020/12/12 05:38:16;;;;;;;30.50;13.63;;;11.30;99.90;;;;;;5001504;28;20541;-88
2020/12/12 05:40:44;;;;;;;36.88;13.90;;;11.40;99.90;;;;;;4982964;28;20172;-88
2020/12/12 05:43:12;;;;;;;32.40;13.93;;;11.40;99.90;;;;;;5015784;28;20165;-88
2020/12/12 05:45:39;;;;;;;39.17;14.18;;;11.40;99.90;;;;;;4998622;28;20577;-88
2020/12/12 05:48:07;;;;;;;50.20;15.52;;;11.50;99.90;;;;;;4999591;28;20177;-90
2020/12/12 05:50:33;;;;;;;45.50;14.65;;;11.50;99.90;;;;;;4999296;28;20207;-89
2020/12/12 05:52:59;;;;;;;53.42;16.25;;;11.60;99.90;;;;;;4999949;28;20180;-89
2020/12/12 05:55:33;;;;;;;47.28;15.13;;;11.50;99.90;;;;;;4999303;28;20168;-89
2020/12/12 05:58:00;;;;;;;38.28;16.15;;;11.40;99.90;;;;;;4998583;28;20227;-89
2020/12/12 06:00:27;;;;;;;39.28;15.45;;;11.40;99.90;;;;;;4981784;28;20186;-89
2020/12/12 06:02:53;;;;;;;51.00;14.68;;;11.30;99.90;;;;;;4998293;28;20183;-89
2020/12/12 06:05:28;;;;;;;49.03;15.32;;;11.30;99.90;;;;;;4997802;28;20173;-92
2020/12/12 06:07:57;;;;;;;32.33;14.18;;;11.20;99.90;;;;;;4997866;28;20676;-88
2020/12/12 06:10:28;;;;;;;44.28;14.55;;;11.30;99.90;;;;;;5002772;28;20190;-91
2020/12/12 06:13:00;;;;;;;38.97;14.27;;;11.30;99.90;;;;;;5017589;28;20237;-91
2020/12/12 06:15:40;;;;;;;32.80;14.18;;;11.30;99.90;;;;;;5017439;28;20168;-91
2020/12/12 06:18:22;;;;;;;41.85;14.70;;;11.40;99.90;;;;;;5001310;28;20168;-93
2020/12/12 06:20:51;;;;;;;34.25;14.68;;;11.40;99.90;;;;;;5017044;28;20187;-89
2020/12/12 06:23:18;;;;;;;53.90;15.15;;;11.30;99.90;;;;;;5016963;28;20175;-89
2020/12/12 06:25:44;;;;;;;44.53;15.38;;;11.40;99.90;;;;;;5002811;28;20637;-89
2020/12/12 06:28:18;;;;;;;65.78;16.33;;;11.40;99.90;;;;;;5034732;28;20698;-89
2020/12/12 06:30:45;;;;;;;40.83;15.38;;;11.40;99.90;;;;;;5020735;28;20211;-89
2020/12/12 06:33:10;;;;;;;63.40;16.60;;;11.50;99.90;;;;;;5005918;28;20715;-89
2020/12/12 06:35:38;;;;;;;92.28;17.88;;;11.40;99.90;;;;;;5003154;28;20172;-89
2020/12/12 06:38:22;;;;;;;68.78;17.95;;;11.50;99.90;;;;;;5018626;28;20550;-89
2020/12/12 06:40:50;;;;;;;112.63;19.85;;;11.40;99.90;;;;;;5017394;28;20536;-89
2020/12/12 06:43:34;;;;;;;82.88;20.10;;;11.40;99.90;;;;;;5019800;28;20221;-89
2020/12/12 06:46:03;;;;;;;98.72;19.88;;;11.40;99.90;;;;;;5018599;28;20164;-89
2020/12/12 06:48:31;;;;;;;51.42;17.75;;;11.30;99.90;;;;;;5035609;28;20171;-89
2020/12/12 06:50:58;;;;;;;90.88;18.67;;;11.20;99.90;;;;;;5019210;28;20195;-89
2020/12/12 06:53:30;;;;;;;71.50;17.77;;;11.10;99.90;;;;;;5020093;28;20176;-89
2020/12/12 06:56:12;;;;;;;98.88;19.42;;;11.10;99.90;;;;;;5002048;28;20214;-90
2020/12/12 06:58:39;;;;;;;115.07;21.67;;;11.20;99.90;;;;;;5018070;28;20524;-89
2020/12/12 07:01:30;;;;;;;92.90;21.42;;;11.30;99.90;;;;;;5018708;28;20176;-89
2020/12/12 07:04:07;;;;;;;115.57;20.90;;;11.30;99.90;;;;;;5016982;28;20498;-89
2020/12/12 07:06:33;;;;;;;88.15;20.85;;;11.20;99.90;;;;;;5035288;28;20153;-89
2020/12/12 07:09:07;;;;;;;91.50;21.00;;;11.20;99.90;;;;;;5018302;28;20223;-89
2020/12/12 07:11:33;;;;;;;86.03;21.20;;;11.10;99.90;;;;;;5003982;28;20196;-87
2020/12/12 07:14:01;;;;;;;97.28;20.45;;;11.10;99.90;;;;;;4997351;28;20169;-89
2020/12/12 07:16:27;;;;;;;88.85;21.30;;;11.10;99.90;;;;;;4997840;28;20645;-89
2020/12/12 07:18:53;;;;;;;91.28;21.38;;;11.00;99.90;;;;;;4998031;28;20183;-89
2020/12/12 07:21:19;;;;;;;92.32;19.58;;;11.10;99.90;;;;;;5016470;28;20192;-89
2020/12/12 07:23:46;;;;;;;94.32;22.65;;;11.10;99.90;;;;;;5013781;28;20204;-89
2020/12/12 07:26:12;;;;;;;100.45;21.50;;;11.00;99.90;;;;;;4998561;28;20169;-89
2020/12/12 07:28:39;;;;;;;80.65;20.65;;;11.00;99.90;;;;;;5005581;28;20177;-89
2020/12/12 07:31:05;;;;;;;94.88;21.15;;;11.00;99.90;;;;;;5020627;28;20223;-89
2020/12/12 07:33:34;;;;;;;93.63;24.17;;;11.00;99.90;;;;;;5034354;28;20173;-88
2020/12/12 07:36:02;;;;;;;86.45;21.65;;;11.00;99.90;;;;;;5011262;28;20173;-89
2020/12/12 07:38:28;;;;;;;89.78;22.23;;;10.90;99.90;;;;;;4985795;28;20249;-89
2020/12/12 07:40:59;;;;;;;92.95;22.48;;;10.90;99.90;;;;;;5016870;28;20221;-90
2020/12/12 07:43:25;;;;;;;99.60;21.40;;;11.00;99.90;;;;;;5025934;28;20168;-89
2020/12/12 07:46:04;;;;;;;86.43;20.85;;;11.00;99.90;;;;;;5027282;28;20270;-90
2020/12/12 07:48:30;;;;;;;108.57;22.00;;;11.00;99.90;;;;;;5044992;28;20252;-88
2020/12/12 07:50:59;;;;;;;129.20;25.23;;;11.00;99.90;;;;;;5008798;28;20192;-88
2020/12/12 07:53:28;;;;;;;117.82;25.38;;;11.00;99.90;;;;;;4997024;28;20264;-88
2020/12/12 07:55:57;;;;;;;108.20;23.25;;;11.00;99.90;;;;;;5012372;28;20183;-88
2020/12/12 07:58:25;;;;;;;168.68;24.55;;;10.90;99.90;;;;;;5027234;28;20175;-88
2020/12/12 08:01:04;;;;;;;126.57;24.92;;;10.90;99.90;;;;;;5012394;28;20637;-89
2020/12/12 08:03:30;;;;;;;117.25;25.30;;;10.90;99.90;;;;;;5027044;28;20221;-89
2020/12/12 08:06:17;;;;;;;140.30;24.33;;;10.80;99.90;;;;;;5008782;28;20199;-88
2020/12/12 08:08:56;;;;;;;101.85;24.83;;;10.70;99.90;;;;;;5009546;28;20191;-89
2020/12/12 08:11:22;;;;;;;133.63;26.42;;;10.70;99.90;;;;;;5027818;28;20196;-89
2020/12/12 08:13:49;;;;;;;135.60;28.30;;;10.70;99.90;;;;;;5026132;28;20614;-89
2020/12/12 08:16:30;;;;;;;121.80;26.88;;;10.70;99.90;;;;;;5028360;28;20164;-88
2020/12/12 08:19:05;;;;;;;107.88;26.58;;;10.60;99.90;;;;;;5027064;28;20537;-89
2020/12/12 08:21:31;;;;;;;97.65;26.77;;;10.50;99.90;;;;;;5026479;28;20214;-90
2020/12/12 08:23:58;;;;;;;105.93;27.38;;;10.50;99.90;;;;;;5024905;28;20180;-89
2020/12/12 08:26:32;;;;;;;111.75;27.95;;;10.60;99.90;;;;;;5025060;28;20168;-89
2020/12/12 08:29:00;;;;;;;110.97;28.83;;;10.70;99.90;;;;;;5010541;28;20696;-89
2020/12/12 08:31:26;;;;;;;115.47;28.52;;;10.80;99.90;;;;;;5010057;28;20203;-89
2020/12/12 08:33:56;;;;;;;98.47;27.70;;;10.80;99.90;;;;;;5026965;28;20176;-89
2020/12/12 08:36:29;;;;;;;99.07;27.88;;;10.80;99.90;;;;;;5010428;28;20180;-89
2020/12/12 08:39:04;;;;;;;101.15;25.80;;;10.80;99.90;;;;;;5027641;28;20184;-89
2020/12/12 08:41:36;;;;;;;78.65;25.33;;;10.90;99.90;;;;;;5025999;28;20194;-90
2020/12/12 08:44:03;;;;;;;85.05;26.10;;;10.90;99.90;;;;;;5026192;28;20211;-89
2020/12/12 08:46:32;;;;;;;101.15;25.95;;;10.90;99.90;;;;;;5027011;28;20204;-87
2020/12/12 08:49:00;;;;;;;80.10;27.58;;;10.80;99.90;;;;;;5027066;28;20176;-88
2020/12/12 08:51:31;;;;;;;93.25;27.38;;;10.80;99.90;;;;;;5044015;28;20200;-88
2020/12/12 08:54:10;;;;;;;92.13;27.35;;;10.80;99.90;;;;;;5023027;28;20256;-89
2020/12/12 08:56:37;;;;;;;90.55;26.60;;;10.80;99.90;;;;;;5002450;28;20180;-86
2020/12/12 08:59:07;;;;;;;66.93;26.33;;;10.80;99.90;;;;;;5010781;28;20630;-83
2020/12/12 09:01:42;;;;;;;82.85;26.95;;;10.70;99.90;;;;;;5000276;28;20192;-84
2020/12/12 09:04:26;;;;;;;78.53;25.33;;;10.60;99.90;;;;;;5020055;28;20175;-82
2020/12/12 09:06:58;;;;;;;69.38;24.33;;;10.50;99.90;;;;;;5020147;28;20172;-84
2020/12/12 09:09:31;;;;;;;72.95;24.50;;;10.50;99.90;;;;;;5006698;28;20180;-84
2020/12/12 09:12:10;;;;;;;65.90;23.88;;;10.50;99.90;;;;;;5021531;28;20211;-84
2020/12/12 09:14:38;;;;;;;62.67;24.25;;;10.60;99.90;;;;;;5021511;28;20164;-84
2020/12/12 09:17:09;;;;;;;66.65;25.55;;;10.70;99.90;;;;;;5020607;28;20179;-84
2020/12/12 09:19:36;;;;;;;61.28;23.38;;;10.70;99.90;;;;;;5003311;28;20552;-85
2020/12/12 09:22:08;;;;;;;70.38;24.75;;;10.60;99.90;;;;;;4987747;28;20176;-84
2020/12/12 09:24:34;;;;;;;65.85;24.83;;;10.50;99.90;;;;;;5022491;28;20648;-84
2020/12/12 09:27:04;;;;;;;65.43;24.33;;;10.50;99.90;;;;;;4988043;28;20176;-85
2020/12/12 09:29:30;;;;;;;64.78;24.88;;;10.50;99.90;;;;;;5002822;28;20186;-80
2020/12/12 09:31:57;;;;;;;70.88;25.77;;;10.50;99.90;;;;;;5017150;28;20200;-81
2020/12/12 09:34:23;;;;;;;68.13;26.23;;;10.50;99.90;;;;;;5017065;28;20552;-80
2020/12/12 09:36:49;;;;;;;63.13;24.05;;;10.60;99.90;;;;;;5017080;28;20172;-80
2020/12/12 09:39:15;;;;;;;84.10;26.77;;;10.60;99.90;;;;;;5000671;28;20199;-80
2020/12/12 09:41:43;;;;;;;67.88;26.00;;;10.60;99.90;;;;;;5035465;28;20183;-81
2020/12/12 09:44:09;;;;;;;79.97;26.25;;;10.60;99.90;;;;;;5035239;28;20703;-80
2020/12/12 09:46:35;;;;;;;64.20;25.90;;;10.60;99.90;;;;;;5001594;28;20168;-81
2020/12/12 09:49:01;;;;;;;84.95;27.45;;;10.70;99.90;;;;;;5036509;28;20179;-81
2020/12/12 09:51:27;;;;;;;65.72;26.02;;;10.80;99.90;;;;;;5018371;28;20211;-83
2020/12/12 09:53:53;;;;;;;75.90;25.52;;;10.80;99.90;;;;;;5035792;28;20180;-82
2020/12/12 09:56:20;;;;;;;67.30;25.35;;;10.90;99.90;;;;;;5020609;28;20203;-82
2020/12/12 09:58:46;;;;;;;71.70;23.52;;;11.00;99.90;;;;;;5026099;28;20184;-82
2020/12/12 10:01:13;;;;;;;60.35;24.40;;;11.10;99.90;;;;;;5035537;28;20184;-82
2020/12/12 10:03:39;;;;;;;73.35;25.67;;;11.00;99.90;;;;;;5017520;28;20227;-81
2020/12/12 10:06:09;;;;;;;59.20;23.65;;;11.10;99.90;;;;;;4997435;28;20195;-81
2020/12/12 10:08:36;;;;;;;66.22;24.40;;;11.20;99.90;;;;;;4997548;28;20177;-81
2020/12/12 10:11:03;;;;;;;61.58;23.48;;;11.30;99.90;;;;;;4984040;28;20600;-82
2020/12/12 10:13:28;;;;;;;63.08;24.73;;;11.40;99.90;;;;;;5020608;28;20215;-81
2020/12/12 10:15:54;;;;;;;62.25;24.25;;;11.30;99.90;;;;;;4997124;28;20160;-84
2020/12/12 10:18:23;;;;;;;54.05;21.85;;;11.40;99.90;;;;;;5015546;28;20203;-84
2020/12/12 10:20:49;;;;;;;57.78;22.75;;;11.40;99.90;;;;;;5018518;28;20195;-84
2020/12/12 10:23:14;;;;;;;59.45;22.45;;;11.40;99.90;;;;;;5017945;28;20235;-85
2020/12/12 10:25:41;;;;;;;70.85;22.98;;;11.40;99.90;;;;;;5022244;28;20226;-84
2020/12/12 10:28:07;;;;;;;56.08;22.65;;;11.50;99.90;;;;;;5038888;28;20176;-85
2020/12/12 10:30:33;;;;;;;56.58;22.73;;;11.60;99.90;;;;;;5037925;28;20199;-85
2020/12/12 10:33:01;;;;;;;49.58;21.13;;;11.70;99.90;;;;;;5015916;28;20204;-86
2020/12/12 10:35:28;;;;;;;41.72;20.67;;;11.70;99.90;;;;;;5035094;28;20172;-85
2020/12/12 10:37:55;;;;;;;51.53;22.65;;;11.80;99.90;;;;;;5017064;28;20518;-86
2020/12/12 10:40:38;;;;;;;51.90;22.17;;;11.80;99.90;;;;;;4986959;28;20172;-85
2020/12/12 10:43:05;;;;;;;57.90;22.38;;;11.70;99.90;;;;;;5020153;28;20152;-85
2020/12/12 10:45:30;;;;;;;52.10;23.15;;;11.80;99.90;;;;;;5015703;28;20275;-85
2020/12/12 10:47:56;;;;;;;48.70;23.52;;;11.90;99.90;;;;;;5034200;28;20203;-84
2020/12/12 10:50:22;;;;;;;53.10;22.30;;;11.90;99.90;;;;;;5016983;28;20179;-85
2020/12/12 10:52:49;;;;;;;55.70;24.13;;;11.90;99.90;;;;;;4985111;28;20176;-86
2020/12/12 10:55:15;;;;;;;42.30;21.33;;;11.70;99.90;;;;;;5034206;28;20514;-84
2020/12/12 10:57:41;;;;;;;50.88;23.77;;;11.80;99.90;;;;;;5000393;28;20173;-85
2020/12/12 11:00:07;;;;;;;48.95;23.55;;;11.80;99.90;;;;;;5037214;28;20180;-85
2020/12/12 11:02:34;;;;;;;50.88;23.55;;;11.80;99.90;;;;;;5017349;28;20172;-85
2020/12/12 11:05:01;;;;;;;50.13;22.90;;;11.80;99.90;;;;;;5034281;28;20165;-85
2020/12/12 11:07:27;;;;;;;52.60;22.83;;;11.90;99.90;;;;;;5016127;28;20180;-85
2020/12/12 11:09:53;;;;;;;48.28;23.05;;;11.90;99.90;;;;;;5016606;28;20176;-85
2020/12/12 11:12:18;;;;;;;55.13;24.48;;;11.70;99.90;;;;;;5016660;28;20711;-85
2020/12/12 11:14:48;;;;;;;51.03;22.98;;;11.80;99.90;;;;;;5018012;28;20172;-85
2020/12/12 11:17:14;;;;;;;43.38;21.27;;;11.70;99.90;;;;;;5004075;28;20218;-85
2020/12/12 11:19:40;;;;;;;56.88;24.65;;;11.70;99.90;;;;;;5036018;28;20203;-86
2020/12/12 11:22:06;;;;;;;43.17;22.33;;;11.80;99.90;;;;;;5037488;28;20168;-85
2020/12/12 11:24:32;;;;;;;55.08;23.33;;;11.80;99.90;;;;;;5019542;28;20176;-85
2020/12/12 11:26:58;;;;;;;47.85;23.15;;;11.70;99.90;;;;;;5019717;28;20586;-85
2020/12/12 11:29:24;;;;;;;49.35;22.33;;;11.80;99.90;;;;;;5003169;28;20709;-84
2020/12/12 11:31:53;;;;;;;54.67;22.63;;;11.80;99.90;;;;;;5002979;28;20568;-88
2020/12/12 11:46:39;;;;;;;56.30;23.75;;;12.20;99.90;;;;;;5019538;28;20267;-85
2020/12/12 11:49:07;;;;;;;49.00;22.65;;;12.30;99.90;;;;;;5018847;28;20176;-85
2020/12/12 11:51:37;;;;;;;51.08;24.02;;;12.30;99.90;;;;;;5036990;28;20205;-85
2020/12/12 11:54:03;;;;;;;51.25;22.83;;;12.40;99.90;;;;;;5002963;28;20176;-85
2020/12/12 11:56:29;;;;;;;50.13;22.65;;;12.30;99.90;;;;;;5002804;28;20230;-86
2020/12/12 11:58:55;;;;;;;55.97;23.02;;;12.40;99.90;;;;;;5036870;28;20176;-85
2020/12/12 12:01:25;;;;;;;56.60;23.92;;;12.40;99.90;;;;;;5002581;28;20621;-85
2020/12/12 12:03:53;;;;;;;56.33;24.08;;;12.50;99.90;;;;;;5019008;28;20688;-84
2020/12/12 12:06:19;;;;;;;43.20;22.40;;;12.50;99.90;;;;;;5001759;28;22124;-85
2020/12/12 12:09:34;;;;;;;51.53;22.98;;;12.50;99.90;;;;;;5018603;28;20168;-85
2020/12/12 12:11:41;;;;;;;51.33;23.33;;;12.50;99.90;;;;;;5025567;28;20239;-86
2020/12/12 12:14:09;;;;;;;56.72;23.85;;;12.40;99.90;;;;;;5019382;28;20159;-85
2020/12/12 12:16:38;;;;;;;60.60;24.45;;;12.30;99.90;;;;;;5019079;28;20552;-85
2020/12/12 12:19:12;;;;;;;58.47;25.15;;;12.20;99.90;;;;;;5018651;28;20196;-85
2020/12/12 12:21:39;;;;;;;56.65;25.23;;;12.10;99.90;;;;;;5036342;28;20176;-85
2020/12/12 12:24:06;;;;;;;55.75;25.02;;;12.00;99.90;;;;;;5040330;28;20179;-85
2020/12/12 12:26:34;;;;;;;67.07;25.38;;;11.90;99.90;;;;;;5033710;28;20178;-86
2020/12/12 12:29:04;;;;;;;65.13;25.02;;;11.70;99.90;;;;;;5037416;28;20614;-85
2020/12/12 12:31:31;;;;;;;66.75;27.05;;;11.70;99.90;;;;;;5036187;28;20595;-84
2020/12/12 12:33:57;;;;;;;68.93;26.45;;;11.60;99.90;;;;;;5018224;28;20172;-85
2020/12/12 12:36:24;;;;;;;63.70;27.73;;;11.60;99.90;;;;;;5018722;28;20164;-86
2020/12/12 12:38:51;;;;;;;62.53;26.75;;;11.70;99.90;;;;;;5032896;28;20148;-86
2020/12/12 12:41:17;;;;;;;68.93;28.95;;;11.80;99.90;;;;;;5032506;28;20188;-85